DLH438 EDDF-KDFW
Flight info
| Callsign | DLH438 |
|---|---|
| Flight time | N/A |
| Altitude | 34000 |
| Route | MARUN9S MARUN Y152 ARPEG Z850 HMM Z529 ATPAQ DCT OMIMA DCT KARLI DCT GUNPA/M078F340 DCT 63N010W 65N020W 66N030W 66N040W 65N050W DCT CLAVY N992A KAGLY/N0460F340 N992A TEFFO DCT DAXER DCT LENUT DCT KEMSA DCT GRAVO DCT YQT DCT CESNA DCT OVR DCT IBAKE VKTRY2 |
| Aircraft | A343/H-SDE2E3FGHIJ4J5M1RWXY/LB1D1 |
Departure
| Time | 2026-04-16 04:49 |
|---|---|
| Airport | Frankfurt Main Airport (EDDF) |
Arrival
| Time | N/A |
|---|---|
| Airport | Dallas Fort Worth International Airport (KDFW) |
| Time | Latitude | Longitude | Altitude | Speed | Heading |
|---|---|---|---|---|---|
| 2026-04-16 04:39 | 50.03820 | 8.54584 | 351 ft | 0 kts | 160° |
| 2026-04-16 04:43 | 50.03844 | 8.54570 | 356 ft | 5 kts | 161° |
| 2026-04-16 04:43 | 50.03874 | 8.54554 | 356 ft | 5 kts | 163° |
| 2026-04-16 04:43 | 50.03895 | 8.54547 | 351 ft | 3 kts | 181° |
| 2026-04-16 04:44 | 50.03905 | 8.54553 | 351 ft | 2 kts | 240° |
| 2026-04-16 04:44 | 50.03912 | 8.54566 | 361 ft | 2 kts | 274° |
| 2026-04-16 04:44 | 50.03911 | 8.54573 | 362 ft | 0 kts | 249° |
| 2026-04-16 04:45 | 50.03911 | 8.54572 | 362 ft | 0 kts | 249° |
| 2026-04-16 04:45 | 50.03899 | 8.54526 | 361 ft | 11 kts | 249° |
| 2026-04-16 04:46 | 50.03860 | 8.54373 | 358 ft | 19 kts | 244° |
| 2026-04-16 04:46 | 50.03788 | 8.54176 | 356 ft | 23 kts | 249° |
| 2026-04-16 04:46 | 50.03724 | 8.53914 | 353 ft | 29 kts | 250° |
| 2026-04-16 04:46 | 50.03653 | 8.53614 | 348 ft | 30 kts | 249° |
| 2026-04-16 04:47 | 50.03582 | 8.53322 | 351 ft | 28 kts | 249° |
| 2026-04-16 04:47 | 50.03513 | 8.53040 | 353 ft | 27 kts | 249° |
| 2026-04-16 04:47 | 50.03453 | 8.52802 | 337 ft | 23 kts | 246° |
| 2026-04-16 04:47 | 50.03391 | 8.52616 | 334 ft | 17 kts | 214° |
| 2026-04-16 04:48 | 50.03235 | 8.52596 | 338 ft | 38 kts | 180° |
| 2026-04-16 04:48 | 50.02794 | 8.52602 | 334 ft | 88 kts | 179° |
| 2026-04-16 04:48 | 50.02032 | 8.52608 | 336 ft | 130 kts | 180° |
| 2026-04-16 04:48 | 50.01021 | 8.52618 | 333 ft | 164 kts | 179° |
| 2026-04-16 04:49 | 49.99821 | 8.52654 | 646 ft | 172 kts | 180° |
| 2026-04-16 04:49 | 49.98632 | 8.52624 | 1095 ft | 176 kts | 188° |
| 2026-04-16 04:49 | 49.97453 | 8.51907 | 1335 ft | 191 kts | 218° |
| 2026-04-16 04:49 | 49.96443 | 8.50493 | 1738 ft | 201 kts | 226° |
| 2026-04-16 04:50 | 49.95385 | 8.48854 | 1891 ft | 228 kts | 226° |
| 2026-04-16 04:50 | 49.94213 | 8.47051 | 2339 ft | 242 kts | 226° |
| 2026-04-16 04:50 | 49.92993 | 8.45198 | 2947 ft | 249 kts | 226° |
| 2026-04-16 04:50 | 49.91736 | 8.43298 | 3603 ft | 254 kts | 226° |
| 2026-04-16 04:51 | 49.90455 | 8.41379 | 4270 ft | 259 kts | 226° |
| 2026-04-16 04:51 | 49.89144 | 8.39420 | 4967 ft | 262 kts | 226° |
| 2026-04-16 04:51 | 49.87960 | 8.37263 | 5622 ft | 264 kts | 242° |
| 2026-04-16 04:51 | 49.87385 | 8.34593 | 6292 ft | 263 kts | 268° |
| 2026-04-16 04:52 | 49.87635 | 8.31848 | 6933 ft | 263 kts | 292° |
| 2026-04-16 04:52 | 49.88502 | 8.29347 | 7583 ft | 265 kts | 302° |
| 2026-04-16 04:52 | 49.89514 | 8.26939 | 8214 ft | 268 kts | 303° |
| 2026-04-16 04:52 | 49.90659 | 8.24632 | 8841 ft | 272 kts | 314° |
| 2026-04-16 04:53 | 49.92189 | 8.22878 | 9457 ft | 277 kts | 333° |
| 2026-04-16 04:53 | 49.94003 | 8.21812 | 10054 ft | 281 kts | 342° |
| 2026-04-16 04:53 | 49.95932 | 8.21090 | 10496 ft | 291 kts | 346° |
| 2026-04-16 04:53 | 49.97975 | 8.20546 | 10720 ft | 306 kts | 349° |
| 2026-04-16 04:54 | 50.00137 | 8.20070 | 10938 ft | 320 kts | 350° |
| 2026-04-16 04:54 | 50.02390 | 8.19589 | 11143 ft | 334 kts | 350° |
| 2026-04-16 04:54 | 50.04734 | 8.19068 | 11370 ft | 347 kts | 349° |
| 2026-04-16 04:54 | 50.07152 | 8.18497 | 11708 ft | 355 kts | 349° |
| 2026-04-16 04:55 | 50.09609 | 8.17891 | 12169 ft | 360 kts | 348° |
| 2026-04-16 04:55 | 50.12065 | 8.17268 | 12660 ft | 363 kts | 348° |
| 2026-04-16 04:55 | 50.14573 | 8.16622 | 13186 ft | 367 kts | 348° |
| 2026-04-16 04:55 | 50.17119 | 8.15963 | 13681 ft | 372 kts | 348° |
| 2026-04-16 04:56 | 50.19686 | 8.15299 | 14209 ft | 375 kts | 347° |
| 2026-04-16 04:56 | 50.22267 | 8.14629 | 14720 ft | 377 kts | 347° |
| 2026-04-16 04:56 | 50.24859 | 8.13957 | 15275 ft | 378 kts | 347° |
| 2026-04-16 04:56 | 50.27458 | 8.13283 | 15803 ft | 380 kts | 347° |
| 2026-04-16 04:57 | 50.30074 | 8.12604 | 16335 ft | 381 kts | 347° |
| 2026-04-16 04:57 | 50.32663 | 8.11931 | 16848 ft | 383 kts | 347° |
| 2026-04-16 04:57 | 50.35299 | 8.11245 | 17367 ft | 385 kts | 347° |
| 2026-04-16 04:57 | 50.37949 | 8.10555 | 17890 ft | 387 kts | 347° |
| 2026-04-16 04:58 | 50.40615 | 8.09860 | 18399 ft | 389 kts | 347° |
| 2026-04-16 04:58 | 50.43285 | 8.09164 | 18830 ft | 391 kts | 347° |
| 2026-04-16 04:58 | 50.45981 | 8.08461 | 19250 ft | 393 kts | 347° |
| 2026-04-16 04:58 | 50.48690 | 8.07753 | 19665 ft | 396 kts | 347° |
| 2026-04-16 04:59 | 50.51416 | 8.07040 | 20100 ft | 398 kts | 347° |
| 2026-04-16 04:59 | 50.54154 | 8.06322 | 20523 ft | 400 kts | 347° |
| 2026-04-16 04:59 | 50.56905 | 8.05601 | 20935 ft | 402 kts | 347° |
| 2026-04-16 04:59 | 50.59688 | 8.04870 | 21327 ft | 404 kts | 347° |
| 2026-04-16 05:00 | 50.62472 | 8.04137 | 21770 ft | 406 kts | 346° |
| 2026-04-16 05:00 | 50.65225 | 8.03412 | 22159 ft | 408 kts | 346° |
| 2026-04-16 05:00 | 50.68066 | 8.02663 | 22546 ft | 410 kts | 346° |
| 2026-04-16 05:00 | 50.70849 | 8.01928 | 22916 ft | 412 kts | 346° |
| 2026-04-16 05:01 | 50.73683 | 8.01180 | 23300 ft | 414 kts | 346° |
| 2026-04-16 05:01 | 50.76537 | 8.00425 | 23651 ft | 416 kts | 346° |
| 2026-04-16 05:01 | 50.79405 | 7.99666 | 23977 ft | 419 kts | 346° |
| 2026-04-16 05:01 | 50.82288 | 7.98901 | 24246 ft | 422 kts | 346° |
| 2026-04-16 05:02 | 50.85200 | 7.98125 | 24427 ft | 427 kts | 346° |
| 2026-04-16 05:02 | 50.88139 | 7.97343 | 24706 ft | 429 kts | 346° |
| 2026-04-16 05:02 | 50.91094 | 7.96557 | 25004 ft | 430 kts | 346° |
| 2026-04-16 05:02 | 50.94053 | 7.95770 | 25281 ft | 432 kts | 346° |
| 2026-04-16 05:03 | 50.97027 | 7.94977 | 25563 ft | 434 kts | 346° |
| 2026-04-16 05:03 | 51.00020 | 7.94177 | 25826 ft | 436 kts | 346° |
| 2026-04-16 05:03 | 51.03023 | 7.93374 | 26094 ft | 438 kts | 346° |
| 2026-04-16 05:04 | 51.09061 | 7.91756 | 26637 ft | 442 kts | 346° |
| 2026-04-16 05:04 | 51.11078 | 7.91214 | 26832 ft | 443 kts | 346° |
| 2026-04-16 05:04 | 51.14125 | 7.90395 | 27080 ft | 445 kts | 345° |
| 2026-04-16 05:04 | 51.18185 | 7.89301 | 27395 ft | 447 kts | 345° |
| 2026-04-16 05:05 | 51.20261 | 7.88741 | 27560 ft | 449 kts | 345° |
| 2026-04-16 05:05 | 51.23342 | 7.87910 | 27804 ft | 450 kts | 345° |
| 2026-04-16 05:05 | 51.27455 | 7.86798 | 28091 ft | 453 kts | 345° |
| 2026-04-16 05:05 | 51.29513 | 7.86240 | 28254 ft | 454 kts | 345° |
| 2026-04-16 05:06 | 51.32637 | 7.85393 | 28509 ft | 456 kts | 345° |
| 2026-04-16 05:06 | 51.35766 | 7.84544 | 28738 ft | 457 kts | 345° |
| 2026-04-16 05:06 | 51.38912 | 7.83688 | 28940 ft | 459 kts | 345° |
| 2026-04-16 05:06 | 51.42067 | 7.82829 | 29143 ft | 461 kts | 345° |
| 2026-04-16 05:07 | 51.45236 | 7.81965 | 29356 ft | 462 kts | 345° |
| 2026-04-16 05:07 | 51.48416 | 7.81097 | 29558 ft | 464 kts | 345° |
| 2026-04-16 05:07 | 51.51608 | 7.80224 | 29761 ft | 466 kts | 345° |
| 2026-04-16 05:07 | 51.54809 | 7.79347 | 29973 ft | 467 kts | 345° |
| 2026-04-16 05:08 | 51.58012 | 7.78470 | 30326 ft | 465 kts | 345° |
| 2026-04-16 05:08 | 51.61163 | 7.77608 | 30580 ft | 464 kts | 345° |
| 2026-04-16 05:08 | 51.64349 | 7.76734 | 30805 ft | 464 kts | 345° |
| 2026-04-16 05:08 | 51.67533 | 7.75858 | 31029 ft | 464 kts | 345° |
| 2026-04-16 05:09 | 51.70725 | 7.74978 | 31206 ft | 464 kts | 345° |
| 2026-04-16 05:09 | 51.73912 | 7.74098 | 31423 ft | 464 kts | 345° |
| 2026-04-16 05:09 | 51.77097 | 7.73217 | 31645 ft | 464 kts | 345° |
| 2026-04-16 05:09 | 51.80242 | 7.72346 | 31897 ft | 463 kts | 345° |
| 2026-04-16 05:10 | 51.83427 | 7.71524 | 32135 ft | 464 kts | 348° |
| 2026-04-16 05:10 | 51.86668 | 7.71258 | 32332 ft | 470 kts | 356° |
| 2026-04-16 05:10 | 51.89958 | 7.71509 | 32529 ft | 472 kts | 358° |
| 2026-04-16 05:10 | 51.93239 | 7.71917 | 32719 ft | 473 kts | 359° |
| 2026-04-16 05:11 | 51.96529 | 7.72415 | 32912 ft | 473 kts | 360° |
| 2026-04-16 05:11 | 51.99769 | 7.72946 | 33089 ft | 473 kts | 0° |
| 2026-04-16 05:11 | 52.03054 | 7.73495 | 33300 ft | 473 kts | 0° |
| 2026-04-16 05:11 | 52.06331 | 7.74040 | 33520 ft | 472 kts | 0° |
| 2026-04-16 05:12 | 52.09593 | 7.74574 | 33708 ft | 471 kts | 0° |
| 2026-04-16 05:12 | 52.12859 | 7.75101 | 33875 ft | 471 kts | 360° |
| 2026-04-16 05:12 | 52.16127 | 7.75622 | 34037 ft | 471 kts | 360° |
| 2026-04-16 05:12 | 52.19386 | 7.76139 | 34188 ft | 471 kts | 360° |
| 2026-04-16 05:13 | 52.22646 | 7.76656 | 34320 ft | 471 kts | 360° |
| 2026-04-16 05:13 | 52.25912 | 7.77174 | 34426 ft | 471 kts | 0° |
| 2026-04-16 05:13 | 52.29179 | 7.77694 | 34561 ft | 471 kts | 0° |
| 2026-04-16 05:13 | 52.32407 | 7.78195 | 34678 ft | 470 kts | 358° |
| 2026-04-16 05:14 | 52.35664 | 7.78235 | 34767 ft | 465 kts | 351° |
| 2026-04-16 05:14 | 52.42103 | 7.77425 | 34966 ft | 463 kts | 349° |
| 2026-04-16 05:15 | 52.48525 | 7.76376 | 35164 ft | 463 kts | 348° |
| 2026-04-16 05:15 | 52.51747 | 7.75821 | 35286 ft | 463 kts | 347° |
| 2026-04-16 05:15 | 52.54904 | 7.74890 | 35346 ft | 459 kts | 341° |
| 2026-04-16 05:16 | 52.61065 | 7.72380 | 35530 ft | 459 kts | 340° |
| 2026-04-16 05:16 | 52.67253 | 7.69673 | 35712 ft | 459 kts | 340° |
| 2026-04-16 05:17 | 52.73424 | 7.66935 | 35883 ft | 459 kts | 340° |
| 2026-04-16 05:17 | 52.76473 | 7.65585 | 35985 ft | 460 kts | 340° |
| 2026-04-16 05:17 | 52.79564 | 7.64217 | 36040 ft | 460 kts | 340° |
| 2026-04-16 05:18 | 52.85768 | 7.61472 | 36125 ft | 463 kts | 340° |
| 2026-04-16 05:18 | 52.91989 | 7.58717 | 36127 ft | 462 kts | 340° |
| 2026-04-16 05:19 | 52.98196 | 7.55963 | 36122 ft | 460 kts | 340° |
| 2026-04-16 05:19 | 53.04385 | 7.53205 | 36130 ft | 461 kts | 340° |
| 2026-04-16 05:20 | 53.10586 | 7.50431 | 36125 ft | 462 kts | 340° |
| 2026-04-16 05:20 | 53.16792 | 7.47648 | 36122 ft | 462 kts | 340° |
| 2026-04-16 05:21 | 53.23004 | 7.44855 | 36127 ft | 462 kts | 340° |
| 2026-04-16 05:21 | 53.29177 | 7.42071 | 36126 ft | 462 kts | 340° |
| 2026-04-16 05:22 | 53.35376 | 7.39266 | 36127 ft | 462 kts | 340° |
| 2026-04-16 05:22 | 53.41580 | 7.36451 | 36130 ft | 462 kts | 340° |
| 2026-04-16 05:23 | 53.47781 | 7.33628 | 36114 ft | 462 kts | 340° |
| 2026-04-16 05:23 | 53.53984 | 7.30796 | 36123 ft | 462 kts | 340° |
| 2026-04-16 05:24 | 53.60157 | 7.27969 | 36114 ft | 463 kts | 340° |
| 2026-04-16 05:24 | 53.66368 | 7.25116 | 36116 ft | 462 kts | 340° |
| 2026-04-16 05:25 | 53.72570 | 7.22260 | 36116 ft | 462 kts | 340° |
| 2026-04-16 05:25 | 53.78778 | 7.19390 | 36125 ft | 462 kts | 340° |
| 2026-04-16 05:26 | 53.84996 | 7.16507 | 36113 ft | 463 kts | 340° |
| 2026-04-16 05:26 | 53.91220 | 7.13613 | 36117 ft | 463 kts | 340° |
| 2026-04-16 05:27 | 53.97435 | 7.10714 | 36119 ft | 463 kts | 340° |
| 2026-04-16 05:27 | 54.03609 | 7.07826 | 36119 ft | 463 kts | 340° |
| 2026-04-16 05:28 | 54.09833 | 7.04904 | 36119 ft | 464 kts | 340° |
| 2026-04-16 05:28 | 54.16071 | 7.01967 | 36116 ft | 465 kts | 340° |
| 2026-04-16 05:29 | 54.22309 | 6.99021 | 36114 ft | 465 kts | 340° |
| 2026-04-16 05:29 | 54.28540 | 6.96070 | 36108 ft | 465 kts | 340° |
| 2026-04-16 05:30 | 54.34774 | 6.93106 | 36116 ft | 466 kts | 340° |
| 2026-04-16 05:30 | 54.41035 | 6.90120 | 36109 ft | 467 kts | 340° |
| 2026-04-16 05:31 | 54.47260 | 6.87144 | 36107 ft | 467 kts | 340° |
| 2026-04-16 05:31 | 54.53518 | 6.84142 | 36102 ft | 467 kts | 340° |
| 2026-04-16 05:32 | 54.59787 | 6.81125 | 36101 ft | 467 kts | 340° |
| 2026-04-16 05:32 | 54.66067 | 6.78092 | 36099 ft | 468 kts | 340° |